»·PEaware :: N8949G KPAE-KBLI

N8949G :: KPAE-KBLI

FLIGHT INFORMATION

Flight Status: Arrived
Operator: Privately registered:
United States
More flights under this callsign
Pilot: Guy T. (43757)
Aircraft: CESSNA 172 SKYHAWK
(C172)
More flights by this aircraft type
Origin: KPAE Paine Field/Snohomish Co.
United States
Destination: KBLI Bellingham Intl
United States
More flights between these airports :: More routes between these airports
Route: PAINE6 PAE V23 HUH
File this flight plan on PilotEdge
Remarks:
Altitude:
(Current/Filed)
4,000ft
Speed:
(Current/Filed)
130kts
Departed: 26-May-23 06:52 PM
Arrived: 26-May-23 07:24 PM
Distance/Time
Traveled:
54nm/0:32
Distance/Time
To Go:
Arrived

Flight Plot

Page will automatically refresh every two minutes.

Flight plan parsing failed; only flown route is shown


Map Options




Map Legend


Flown Route
Filed Route
Departure Airport
Arrival Airport
Navaid (VOR, NDB)
Fix

Horizontal Profiles

Position Reports

Time Latitude Longitude Heading Altitude Ground
Speed
26-May-23 18:29 47.898005 -122.282201 274 575ft 0kts
26-May-23 18:30 47.898005 -122.282201 274 575ft 0kts
26-May-23 18:31 47.898005 -122.282201 274 575ft 0kts
26-May-23 18:32 47.898005 -122.282201 274 575ft 0kts
26-May-23 18:33 47.898005 -122.282201 274 575ft 0kts
26-May-23 18:34 47.898005 -122.282201 274 575ft 0kts
26-May-23 18:35 47.898005 -122.282201 274 575ft 0kts
26-May-23 18:36 47.898005 -122.282201 274 575ft 0kts
26-May-23 18:37 47.898005 -122.282201 274 575ft 0kts
26-May-23 18:38 47.898005 -122.282201 274 575ft 0kts
26-May-23 18:39 47.898005 -122.282201 274 575ft 0kts
26-May-23 18:40 47.898005 -122.282201 274 575ft 0kts
26-May-23 18:41 47.898005 -122.282201 274 575ft 0kts
26-May-23 18:42 47.898005 -122.282201 274 575ft 0kts
26-May-23 18:43 47.898005 -122.282201 274 575ft 0kts
26-May-23 18:44 47.898005 -122.282201 274 575ft 0kts
26-May-23 18:45 47.898005 -122.282201 274 575ft 0kts
26-May-23 18:46 47.898005 -122.282201 274 575ft 0kts
26-May-23 18:47 47.898005 -122.282201 274 575ft 0kts
26-May-23 18:48 47.897877 -122.282890 230 571ft 11kts
26-May-23 18:49 47.896722 -122.283915 259 562ft 0kts
26-May-23 18:50 47.896722 -122.283915 259 562ft 0kts
26-May-23 18:51 47.901066 -122.285511 359 571ft 78kts
26-May-23 18:52 47.922681 -122.281995 357 1605ft 78kts
26-May-23 18:53 47.944127 -122.287983 350 2567ft 78kts
26-May-23 18:54 47.966355 -122.292984 353 3486ft 80kts
26-May-23 18:55 47.989311 -122.299597 350 4301ft 86kts
26-May-23 18:56 48.013046 -122.305360 348 5114ft 86kts
26-May-23 18:57 48.039184 -122.312880 353 5740ft 98kts
26-May-23 18:58 48.069155 -122.320135 347 6031ft 120kts
26-May-23 18:59 48.103124 -122.331025 346 6026ft 125kts
26-May-23 19:00 48.137771 -122.340176 351 5983ft 123kts
26-May-23 19:01 48.171643 -122.349846 347 5977ft 122kts
26-May-23 19:02 48.205689 -122.360207 350 5972ft 122kts
26-May-23 19:03 48.239566 -122.369279 347 6040ft 122kts
26-May-23 19:04 48.273446 -122.380170 350 6105ft 123kts
26-May-23 19:05 48.308049 -122.389247 347 6111ft 126kts
26-May-23 19:06 48.343173 -122.399846 347 6116ft 126kts
26-May-23 19:07 48.377642 -122.411076 349 6092ft 126kts
26-May-23 19:08 48.411886 -122.421151 351 6110ft 125kts
26-May-23 19:09 48.446570 -122.428508 348 5711ft 123kts
26-May-23 19:10 48.476408 -122.451874 323 4783ft 117kts
26-May-23 19:11 48.504505 -122.476518 335 3753ft 112kts
26-May-23 19:12 48.530015 -122.500597 328 3104ft 98kts
26-May-23 19:13 48.550132 -122.519643 328 3067ft 84kts
26-May-23 19:14 48.571117 -122.537166 354 3115ft 90kts
26-May-23 19:15 48.595511 -122.536488 0 2743ft 88kts
26-May-23 19:16 48.620057 -122.536322 357 2256ft 87kts
26-May-23 19:17 48.644902 -122.537599 358 2317ft 91kts
26-May-23 19:18 48.671169 -122.537613 0 2363ft 94kts
26-May-23 19:19 48.697551 -122.536769 1 1945ft 93kts
26-May-23 19:20 48.723986 -122.537379 2 1347ft 94kts
26-May-23 19:21 48.750153 -122.537408 359 835ft 94kts
26-May-23 19:22 48.775973 -122.537642 359 377ft 90kts
26-May-23 19:23 48.792482 -122.537524 25 160ft 0kts
26-May-23 19:24 48.793370 -122.536078 41 158ft 0kts

Navigation Log

Ident Type
Flight plan parsing failed, navigation log unavailable